Time;durP1;ratioP1;P1;durP2;ratioP2;P2;SDS_P1;SDS_P2;PMS_P1;PMS_P2;Temp;Humidity;BMP_temperature;BMP_pressure;BME280_temperature;BME280_humidity;BME280_pressure;Samples;Min_cycle;Max_cycle;Signal;HPM_P1;HPM_P2
2021/12/26 00:00:23;;;;;;;16.40;2.70;;;0.80;52.00;;;;;;5055836;28;20036;-64
2021/12/26 00:02:49;;;;;;;5.77;2.40;;;0.80;51.90;;;;;;5071989;28;20131;-64
2021/12/26 00:05:16;;;;;;;5.40;2.27;;;0.80;51.90;;;;;;5056163;28;20115;-64
2021/12/26 00:07:41;;;;;;;6.03;2.20;;;0.80;51.80;;;;;;5072092;28;20024;-64
2021/12/26 00:10:09;;;;;;;5.47;2.27;;;0.80;51.80;;;;;;5053151;28;20098;-64
2021/12/26 00:12:35;;;;;;;7.60;2.50;;;0.80;51.80;;;;;;5072295;28;20028;-64
2021/12/26 00:15:01;;;;;;;5.40;2.13;;;0.80;51.80;;;;;;5072439;28;20071;-64
2021/12/26 00:17:26;;;;;;;7.60;2.87;;;0.80;51.80;;;;;;5071987;28;20035;-64
2021/12/26 00:19:52;;;;;;;7.37;2.67;;;0.70;51.80;;;;;;5072908;28;20090;-64
2021/12/26 00:22:18;;;;;;;5.17;2.20;;;0.70;51.80;;;;;;5055169;28;20353;-64
2021/12/26 00:24:45;;;;;;;7.53;2.40;;;0.70;51.80;;;;;;5073702;28;20032;-64
2021/12/26 00:27:11;;;;;;;5.70;2.10;;;0.70;51.80;;;;;;5072168;28;20024;-64
2021/12/26 00:29:37;;;;;;;6.07;2.30;;;0.70;51.80;;;;;;5072967;28;20075;-64
2021/12/26 00:32:03;;;;;;;5.87;2.60;;;0.70;51.80;;;;;;5072848;28;20449;-64
2021/12/26 00:34:29;;;;;;;4.93;1.97;;;0.80;51.80;;;;;;5077108;28;20036;-63
2021/12/26 00:36:54;;;;;;;6.97;2.37;;;0.70;51.70;;;;;;5076349;28;20029;-64
2021/12/26 00:39:20;;;;;;;6.60;2.47;;;0.70;51.70;;;;;;5059412;28;20368;-64
2021/12/26 00:41:45;;;;;;;4.97;2.30;;;0.70;51.80;;;;;;5058445;28;20040;-64
2021/12/26 00:44:11;;;;;;;6.90;2.27;;;0.70;51.70;;;;;;5075768;28;20036;-64
2021/12/26 00:46:38;;;;;;;6.00;2.17;;;0.70;51.70;;;;;;5058397;28;20035;-64
2021/12/26 00:49:05;;;;;;;4.90;2.07;;;0.70;51.70;;;;;;5075550;28;20037;-64
2021/12/26 00:51:30;;;;;;;6.90;2.20;;;0.60;51.80;;;;;;5054757;28;20078;-64
2021/12/26 00:53:57;;;;;;;5.37;2.30;;;0.60;51.80;;;;;;5067861;28;20037;-64
2021/12/26 00:56:22;;;;;;;7.80;2.63;;;0.70;51.80;;;;;;5058385;28;20460;-64
2021/12/26 00:58:49;;;;;;;5.63;2.40;;;0.70;51.80;;;;;;5078687;28;20128;-64
2021/12/26 01:01:15;;;;;;;5.20;2.23;;;0.70;51.90;;;;;;5062030;28;20108;-64
2021/12/26 01:03:41;;;;;;;6.00;2.20;;;0.70;51.70;;;;;;5058250;28;20123;-64
2021/12/26 01:06:07;;;;;;;5.77;2.20;;;0.70;51.70;;;;;;5053816;28;20025;-64
2021/12/26 01:08:38;;;;;;;6.47;2.23;;;0.70;51.80;;;;;;5057523;28;20071;-64
2021/12/26 01:11:18;;;;;;;6.50;2.60;;;0.70;51.70;;;;;;5070646;28;20017;-63
2021/12/26 01:13:45;;;;;;;6.33;2.57;;;0.70;51.80;;;;;;5057703;28;20047;-64
2021/12/26 01:16:24;;;;;;;7.47;2.57;;;0.70;51.80;;;;;;5055030;28;20468;-64
2021/12/26 01:18:51;;;;;;;6.00;2.23;;;0.70;51.70;;;;;;5070124;28;20475;-64
2021/12/26 01:21:25;;;;;;;6.63;2.30;;;0.70;51.70;;;;;;5070088;28;20028;-64
2021/12/26 01:23:59;;;;;;;6.20;2.23;;;0.70;51.70;;;;;;5050408;28;20048;-64
2021/12/26 01:26:25;;;;;;;5.57;2.17;;;0.60;51.60;;;;;;5053488;28;20017;-64
2021/12/26 01:28:51;;;;;;;5.67;2.33;;;0.60;51.60;;;;;;5057583;28;20040;-64
2021/12/26 01:31:20;;;;;;;7.87;2.80;;;0.60;51.60;;;;;;5053361;28;20422;-64
2021/12/26 01:33:58;;;;;;;4.87;1.97;;;0.60;51.60;;;;;;5061011;28;20021;-64
2021/12/26 01:36:42;;;;;;;5.00;2.40;;;0.60;51.60;;;;;;5056607;28;20122;-66
2021/12/26 01:39:32;;;;;;;5.87;2.10;;;0.60;51.70;;;;;;5067239;28;20025;-64
2021/12/26 01:42:29;;;;;;;5.60;2.30;;;0.60;51.70;;;;;;5055178;28;20033;-64
2021/12/26 01:45:24;;;;;;;4.10;2.10;;;0.60;51.70;;;;;;5062773;28;20039;-64
2021/12/26 01:48:03;;;;;;;7.40;2.50;;;0.50;51.70;;;;;;5054212;28;20040;-64
2021/12/26 01:50:33;;;;;;;6.20;1.93;;;0.50;51.70;;;;;;5054953;28;20077;-63
2021/12/26 01:52:59;;;;;;;8.33;2.93;;;0.50;52.30;;;;;;5060769;28;20108;-64
2021/12/26 01:55:47;;;;;;;8.03;3.00;;;0.60;51.70;;;;;;5058309;28;20174;-64
2021/12/26 01:58:14;;;;;;;6.27;2.40;;;0.60;51.60;;;;;;5052938;28;20362;-64
2021/12/26 02:00:43;;;;;;;6.20;2.20;;;0.60;51.60;;;;;;5055809;28;20016;-63
2021/12/26 02:03:09;;;;;;;7.47;2.80;;;0.60;51.60;;;;;;5064795;28;20025;-64
2021/12/26 02:05:35;;;;;;;5.67;2.20;;;0.60;51.60;;;;;;5057335;28;20017;-64
2021/12/26 02:08:06;;;;;;;6.03;2.47;;;0.60;51.50;;;;;;5056045;28;20468;-64
2021/12/26 02:10:32;;;;;;;6.33;2.27;;;0.60;51.50;;;;;;5053811;28;20021;-64
2021/12/26 02:12:58;;;;;;;6.23;2.40;;;0.50;51.50;;;;;;5054862;28;20029;-64
2021/12/26 02:15:24;;;;;;;6.13;2.40;;;0.50;51.50;;;;;;5076166;28;20031;-64
2021/12/26 02:17:59;;;;;;;6.23;2.20;;;0.50;51.60;;;;;;5060294;28;20165;-64
2021/12/26 02:20:38;;;;;;;5.77;2.00;;;0.50;51.60;;;;;;5061630;28;20028;-64
2021/12/26 02:23:16;;;;;;;6.10;2.83;;;0.50;51.60;;;;;;5073048;28;20028;-63
2021/12/26 02:28:13;;;;;;;6.83;2.47;;;0.50;51.60;;;;;;5073349;28;20051;-64
2021/12/26 02:30:39;;;;;;;7.10;2.43;;;0.50;51.60;;;;;;5073627;28;20048;-64
2021/12/26 02:33:08;;;;;;;4.73;2.10;;;0.50;51.60;;;;;;5073343;28;20405;-64
2021/12/26 02:35:34;;;;;;;5.80;2.37;;;0.50;51.60;;;;;;5073310;28;20123;-64
2021/12/26 02:38:01;;;;;;;5.60;2.13;;;0.40;51.60;;;;;;5073829;28;20052;-64
2021/12/26 02:40:27;;;;;;;8.00;2.20;;;0.40;51.50;;;;;;5073139;28;20056;-64
2021/12/26 02:42:53;;;;;;;5.40;2.50;;;0.40;51.50;;;;;;5074232;28;20409;-64
2021/12/26 02:45:19;;;;;;;5.17;2.07;;;0.40;51.80;;;;;;5072547;28;20060;-64
2021/12/26 02:47:48;;;;;;;5.63;2.07;;;0.40;51.50;;;;;;5057008;28;20059;-64
2021/12/26 02:50:23;;;;;;;6.40;2.20;;;0.40;51.50;;;;;;5072901;28;20058;-64
2021/12/26 02:52:50;;;;;;;4.87;2.10;;;0.40;51.50;;;;;;5073322;28;20036;-64
2021/12/26 02:55:19;;;;;;;6.80;2.50;;;0.40;51.40;;;;;;5073486;28;20048;-64
2021/12/26 02:57:50;;;;;;;6.30;2.17;;;0.40;51.40;;;;;;5073621;28;20353;-64
2021/12/26 03:00:19;;;;;;;5.50;2.40;;;0.40;51.30;;;;;;5056049;28;20422;-64
2021/12/26 03:02:48;;;;;;;5.30;2.10;;;0.40;51.30;;;;;;5072359;28;20032;-64
2021/12/26 03:05:16;;;;;;;5.57;1.87;;;0.30;51.30;;;;;;5045219;28;20415;-64
2021/12/26 03:07:42;;;;;;;5.63;2.30;;;0.40;51.30;;;;;;5056181;28;20020;-64
2021/12/26 03:10:20;;;;;;;4.90;2.33;;;0.40;51.20;;;;;;5072775;28;20046;-64
2021/12/26 03:12:46;;;;;;;5.00;2.20;;;0.40;51.20;;;;;;5072833;28;20559;-64
2021/12/26 03:15:12;;;;;;;5.23;2.10;;;0.40;51.20;;;;;;5054957;28;20107;-64
2021/12/26 03:17:38;;;;;;;5.37;2.20;;;0.30;51.20;;;;;;5074679;28;20036;-64
2021/12/26 03:20:13;;;;;;;5.60;2.20;;;0.30;51.20;;;;;;5072732;28;20431;-64
2021/12/26 03:22:38;;;;;;;5.87;2.30;;;0.30;51.20;;;;;;5072388;28;20115;-64
2021/12/26 03:25:11;;;;;;;5.90;2.23;;;0.30;51.20;;;;;;5072428;28;20048;-64
2021/12/26 03:27:36;;;;;;;6.38;2.75;;;0.20;51.10;;;;;;5074496;28;20400;-64
2021/12/26 03:30:05;;;;;;;6.60;2.50;;;0.20;51.20;;;;;;5055470;28;20074;-64
2021/12/26 03:32:32;;;;;;;6.13;2.27;;;0.20;51.10;;;;;;5072872;28;20029;-64
2021/12/26 03:34:57;;;;;;;7.77;2.40;;;0.20;51.10;;;;;;5055918;28;20054;-64
2021/12/26 03:37:23;;;;;;;5.10;2.00;;;0.20;51.10;;;;;;5072785;28;20183;-64
2021/12/26 03:39:52;;;;;;;6.93;2.20;;;0.20;51.10;;;;;;5072451;28;20032;-64
2021/12/26 03:42:21;;;;;;;6.57;2.40;;;0.20;51.10;;;;;;5072358;28;20090;-64
2021/12/26 03:44:48;;;;;;;6.27;2.10;;;0.20;51.00;;;;;;5072077;28;20035;-64
2021/12/26 03:47:15;;;;;;;5.63;2.10;;;0.20;51.00;;;;;;5069178;28;20047;-64
2021/12/26 03:49:40;;;;;;;5.40;2.00;;;0.20;51.00;;;;;;5072095;28;20017;-64
2021/12/26 03:52:06;;;;;;;4.20;2.20;;;0.20;51.00;;;;;;5073089;28;20457;-64
2021/12/26 03:54:32;;;;;;;6.10;2.30;;;0.10;50.90;;;;;;5072109;28;20040;-64
2021/12/26 03:56:58;;;;;;;5.07;2.33;;;0.10;50.90;;;;;;5072630;28;20028;-64
2021/12/26 03:59:27;;;;;;;4.93;1.90;;;0.10;51.00;;;;;;5072588;28;20035;-64
2021/12/26 04:01:53;;;;;;;5.23;2.03;;;0.10;50.90;;;;;;5055520;28;20037;-64
2021/12/26 04:04:20;;;;;;;5.80;2.20;;;0.20;51.00;;;;;;5055727;28;20025;-64
2021/12/26 04:06:45;;;;;;;6.03;2.23;;;0.10;50.90;;;;;;5074037;28;20487;-64
2021/12/26 04:09:11;;;;;;;7.10;2.67;;;0.20;50.90;;;;;;5076665;28;20047;-64
2021/12/26 04:11:41;;;;;;;5.23;2.27;;;0.20;50.90;;;;;;5058988;28;20032;-64
2021/12/26 04:14:06;;;;;;;4.17;2.00;;;0.20;50.90;;;;;;5059821;28;20043;-64
2021/12/26 04:16:32;;;;;;;5.27;2.00;;;0.20;50.80;;;;;;5055797;28;20029;-64
2021/12/26 04:18:58;;;;;;;4.97;2.00;;;0.20;50.90;;;;;;5058561;28;20395;-64
2021/12/26 04:21:24;;;;;;;6.03;2.00;;;0.20;50.90;;;;;;5058293;28;20457;-64
2021/12/26 04:24:00;;;;;;;7.57;2.53;;;0.20;51.50;;;;;;5075183;28;20353;-64
2021/12/26 04:26:27;;;;;;;6.10;2.47;;;0.10;50.90;;;;;;5076764;28;20386;-64
2021/12/26 04:28:52;;;;;;;7.50;2.03;;;0.10;50.90;;;;;;5076210;28;20071;-65
2021/12/26 04:31:18;;;;;;;4.00;1.90;;;0.10;51.00;;;;;;5075551;28;20041;-64
2021/12/26 04:33:46;;;;;;;5.53;2.10;;;0.10;51.00;;;;;;5059451;28;20039;-64
2021/12/26 04:36:13;;;;;;;7.27;2.43;;;0.10;50.90;;;;;;5075884;28;20063;-64
2021/12/26 04:38:40;;;;;;;4.60;1.93;;;0.10;50.90;;;;;;5055665;28;20141;-64
2021/12/26 04:41:06;;;;;;;7.43;2.30;;;0.10;51.00;;;;;;5067821;28;20068;-64
2021/12/26 04:43:55;;;;;;;4.73;2.10;;;0.10;51.00;;;;;;5059629;28;20113;-64
2021/12/26 04:46:28;;;;;;;5.70;2.13;;;0.00;51.00;;;;;;5059697;28;20090;-64
2021/12/26 04:49:01;;;;;;;5.13;1.90;;;0.00;51.10;;;;;;5060283;28;20028;-64
2021/12/26 04:51:28;;;;;;;6.60;2.57;;;0.00;51.10;;;;;;5075056;28;20349;-64
2021/12/26 04:53:58;;;;;;;5.90;2.27;;;0.00;51.00;;;;;;5075390;28;20444;-64
2021/12/26 04:56:23;;;;;;;4.87;2.33;;;0.10;51.00;;;;;;5075318;28;20024;-64
2021/12/26 04:58:51;;;;;;;5.60;2.10;;;0.10;51.00;;;;;;5059338;28;20039;-64
2021/12/26 05:01:16;;;;;;;4.70;1.97;;;0.10;50.90;;;;;;5075277;28;20402;-64
2021/12/26 05:03:42;;;;;;;4.87;1.90;;;0.10;51.00;;;;;;5075196;28;20024;-64
2021/12/26 05:06:08;;;;;;;5.57;2.40;;;0.00;50.90;;;;;;5076397;28;20081;-64
2021/12/26 05:08:34;;;;;;;5.30;2.20;;;0.00;50.90;;;;;;5073832;28;20029;-64
2021/12/26 05:10:59;;;;;;;5.40;2.07;;;0.10;50.90;;;;;;5076089;28;20028;-64
2021/12/26 05:13:25;;;;;;;5.10;2.10;;;0.10;51.00;;;;;;5075197;28;20028;-64
2021/12/26 05:15:51;;;;;;;5.27;2.30;;;0.10;50.90;;;;;;5058845;28;20345;-64
2021/12/26 05:18:17;;;;;;;6.37;2.20;;;0.10;50.90;;;;;;5054984;28;20385;-64
2021/12/26 05:20:44;;;;;;;6.17;2.30;;;0.00;50.90;;;;;;5058323;28;20120;-64
2021/12/26 05:23:10;;;;;;;6.20;2.13;;;0.00;50.90;;;;;;5074844;28;20056;-64
2021/12/26 05:25:36;;;;;;;6.13;2.20;;;0.10;50.90;;;;;;5058109;28;20020;-64
2021/12/26 05:28:02;;;;;;;4.93;2.10;;;0.00;50.80;;;;;;5075445;28;20080;-64
2021/12/26 05:30:28;;;;;;;5.50;2.37;;;0.00;50.80;;;;;;5057688;28;20376;-64
2021/12/26 05:33:32;;;;;;;6.13;2.10;;;0.10;50.90;;;;;;5059363;28;20061;-64
2021/12/26 05:35:59;;;;;;;5.23;2.27;;;0.00;50.90;;;;;;5058306;28;20028;-64
2021/12/26 05:38:27;;;;;;;5.57;1.83;;;0.00;50.90;;;;;;5074628;28;20023;-64
2021/12/26 05:40:54;;;;;;;5.20;2.00;;;0.00;50.80;;;;;;5075331;28;20032;-64
2021/12/26 05:43:20;;;;;;;4.87;1.90;;;0.00;50.90;;;;;;5074648;28;20085;-64
2021/12/26 05:45:47;;;;;;;4.67;2.10;;;0.00;50.90;;;;;;5074633;28;20342;-64
2021/12/26 05:48:17;;;;;;;4.97;1.80;;;0.00;50.80;;;;;;5074665;28;20052;-64
2021/12/26 05:50:42;;;;;;;6.30;2.10;;;0.00;50.90;;;;;;5054078;28;20055;-64
2021/12/26 05:53:28;;;;;;;4.53;2.00;;;0.00;50.80;;;;;;5074202;28;20040;-63
2021/12/26 05:55:53;;;;;;;4.97;2.00;;;0.00;50.90;;;;;;5074407;28;20029;-64
2021/12/26 05:58:20;;;;;;;4.63;2.13;;;0.00;50.90;;;;;;5074330;28;20032;-64
2021/12/26 06:00:45;;;;;;;5.90;2.23;;;0.00;50.90;;;;;;5074201;28;20368;-64
2021/12/26 06:03:11;;;;;;;6.40;2.30;;;0.00;50.90;;;;;;5057429;28;20037;-64
2021/12/26 06:05:37;;;;;;;5.63;2.20;;;0.00;50.90;;;;;;5074103;28;20079;-64
2021/12/26 06:08:03;;;;;;;5.73;2.10;;;0.00;50.90;;;;;;5074092;28;20032;-63
2021/12/26 06:10:29;;;;;;;5.00;2.00;;;0.00;50.90;;;;;;5073945;28;20104;-64
2021/12/26 06:12:55;;;;;;;4.43;1.90;;;0.00;50.90;;;;;;5056730;28;20143;-64
2021/12/26 06:15:21;;;;;;;5.00;1.93;;;0.10;50.90;;;;;;5057562;28;20077;-64
2021/12/26 06:17:47;;;;;;;4.93;2.00;;;0.10;50.90;;;;;;5073346;28;20032;-64
2021/12/26 06:20:47;;;;;;;4.40;1.80;;;0.10;50.90;;;;;;5074337;28;20056;-64
2021/12/26 06:23:31;;;;;;;5.37;1.90;;;0.10;50.90;;;;;;5065292;28;20059;-63
2021/12/26 06:26:30;;;;;;;5.93;1.97;;;0.10;50.90;;;;;;5074713;28;20037;-64
2021/12/26 06:28:56;;;;;;;5.83;2.27;;;0.10;50.90;;;;;;5073300;28;20074;-63
2021/12/26 06:31:27;;;;;;;5.60;2.10;;;0.10;50.90;;;;;;5073055;28;20052;-64
2021/12/26 06:34:11;;;;;;;5.57;2.20;;;0.20;50.90;;;;;;5074783;28;20117;-64
2021/12/26 06:36:55;;;;;;;4.80;2.00;;;0.20;51.00;;;;;;5074342;28;20113;-64
2021/12/26 06:39:39;;;;;;;5.23;2.20;;;0.20;51.00;;;;;;5074433;28;20047;-64
2021/12/26 06:42:40;;;;;;;6.90;2.53;;;0.20;50.90;;;;;;5063991;28;20051;-64
2021/12/26 06:45:24;;;;;;;5.03;1.93;;;0.20;51.00;;;;;;5073225;28;20055;-64
2021/12/26 06:48:08;;;;;;;6.67;2.37;;;0.20;50.90;;;;;;5072496;28;20173;-64
2021/12/26 06:50:36;;;;;;;5.50;2.20;;;0.20;50.90;;;;;;5056041;28;20119;-64
2021/12/26 06:53:02;;;;;;;3.83;1.83;;;0.20;50.90;;;;;;5072180;28;20040;-64
2021/12/26 06:55:28;;;;;;;5.40;2.17;;;0.20;51.00;;;;;;5056846;28;20032;-64
2021/12/26 06:57:54;;;;;;;6.40;2.30;;;0.20;51.00;;;;;;5055387;28;20043;-64
2021/12/26 07:00:19;;;;;;;5.40;2.00;;;0.20;51.10;;;;;;5072425;28;20036;-64
2021/12/26 07:02:45;;;;;;;7.07;2.33;;;0.20;51.10;;;;;;5072394;28;20041;-64
2021/12/26 07:05:12;;;;;;;6.43;2.30;;;0.20;51.10;;;;;;5072511;28;20036;-64
2021/12/26 07:08:05;;;;;;;4.20;1.93;;;0.20;51.70;;;;;;5055350;28;20032;-64
2021/12/26 07:10:31;;;;;;;6.77;2.30;;;0.20;51.10;;;;;;5055852;28;20029;-64
2021/12/26 07:12:57;;;;;;;5.30;1.90;;;0.20;51.10;;;;;;5055156;28;20074;-64
2021/12/26 07:15:33;;;;;;;5.47;2.23;;;0.20;51.20;;;;;;5055320;28;20028;-64
2021/12/26 07:18:00;;;;;;;5.80;2.53;;;0.20;51.20;;;;;;5052560;28;20186;-63
2021/12/26 07:20:29;;;;;;;5.80;2.57;;;0.20;51.30;;;;;;5072796;28;20442;-64
2021/12/26 07:23:13;;;;;;;5.97;2.80;;;0.30;51.40;;;;;;5073326;28;20075;-64
2021/12/26 07:25:42;;;;;;;6.30;2.37;;;0.30;51.40;;;;;;5057071;28;20120;-64
2021/12/26 07:28:08;;;;;;;4.40;2.17;;;0.30;51.30;;;;;;5072641;28;20060;-64
2021/12/26 07:30:53;;;;;;;6.13;2.07;;;0.40;51.40;;;;;;5073718;28;20044;-65
2021/12/26 07:33:19;;;;;;;6.33;2.30;;;0.40;51.40;;;;;;5072749;28;20361;-64
2021/12/26 07:35:48;;;;;;;4.90;2.40;;;0.40;51.50;;;;;;5037084;28;20056;-64
2021/12/26 07:38:32;;;;;;;5.80;2.23;;;0.40;51.50;;;;;;5073419;28;20558;-64
2021/12/26 07:40:58;;;;;;;6.20;2.00;;;0.40;51.60;;;;;;5073890;28;20042;-64
2021/12/26 07:43:32;;;;;;;5.37;2.10;;;0.40;51.60;;;;;;5077692;28;20024;-64
2021/12/26 07:46:27;;;;;;;4.33;2.10;;;0.40;51.60;;;;;;5077890;28;20112;-64
2021/12/26 07:48:56;;;;;;;5.43;1.97;;;0.40;51.70;;;;;;5060181;28;20509;-64
2021/12/26 07:51:56;;;;;;;6.53;2.47;;;0.40;51.80;;;;;;5036553;28;20488;-65
2021/12/26 07:54:40;;;;;;;5.60;2.30;;;0.40;51.90;;;;;;5035436;28;20041;-64
2021/12/26 07:57:24;;;;;;;5.20;2.00;;;0.40;52.00;;;;;;5022102;28;20037;-64
2021/12/26 08:00:09;;;;;;;5.70;2.30;;;0.50;52.00;;;;;;5013852;28;20119;-64
2021/12/26 08:02:54;;;;;;;5.87;2.07;;;0.50;52.00;;;;;;5035577;28;20057;-64
2021/12/26 08:05:40;;;;;;;6.10;2.30;;;0.50;52.00;;;;;;5035828;28;20048;-65
2021/12/26 08:08:19;;;;;;;5.40;2.20;;;0.50;52.10;;;;;;5018729;28;20056;-65
2021/12/26 08:10:44;;;;;;;6.00;2.70;;;0.50;52.10;;;;;;5018857;28;20029;-65
2021/12/26 08:13:10;;;;;;;4.77;2.10;;;0.50;52.20;;;;;;5034120;28;20029;-66
2021/12/26 08:15:36;;;;;;;6.50;2.57;;;0.50;52.10;;;;;;5018590;28;20037;-64
2021/12/26 08:18:02;;;;;;;5.30;2.33;;;0.50;52.10;;;;;;5035743;28;20025;-65
2021/12/26 08:20:27;;;;;;;5.97;2.37;;;0.60;52.10;;;;;;5018290;28;20455;-65
2021/12/26 08:22:53;;;;;;;6.60;2.30;;;0.60;52.10;;;;;;5033827;28;20162;-65
2021/12/26 08:25:19;;;;;;;7.10;2.57;;;0.60;52.10;;;;;;5035199;28;20132;-63
2021/12/26 08:27:45;;;;;;;6.57;2.60;;;0.70;52.20;;;;;;5046941;28;20039;-64
2021/12/26 08:30:11;;;;;;;6.63;2.10;;;0.70;52.10;;;;;;5076566;28;20115;-64
2021/12/26 08:32:39;;;;;;;5.20;2.60;;;0.70;52.10;;;;;;5077480;28;20094;-64
2021/12/26 08:35:07;;;;;;;7.03;2.30;;;0.70;52.10;;;;;;5077136;28;20031;-64
2021/12/26 08:37:33;;;;;;;4.67;2.13;;;0.70;52.00;;;;;;5075828;28;20021;-64
2021/12/26 08:39:59;;;;;;;5.60;2.30;;;0.80;52.10;;;;;;5076241;28;20032;-64
2021/12/26 08:42:24;;;;;;;5.77;2.40;;;0.70;52.00;;;;;;5075517;28;20426;-64
2021/12/26 08:44:52;;;;;;;6.93;2.57;;;0.70;52.10;;;;;;5076368;28;20037;-64
2021/12/26 08:47:18;;;;;;;9.93;2.87;;;0.70;52.10;;;;;;5075874;28;20029;-64
2021/12/26 08:49:44;;;;;;;6.07;2.40;;;0.70;52.10;;;;;;5076546;28;20028;-64
2021/12/26 08:52:09;;;;;;;5.07;2.27;;;0.80;52.10;;;;;;5075915;28;20029;-64
2021/12/26 08:54:37;;;;;;;8.93;2.97;;;0.80;52.10;;;;;;5058972;28;20377;-64
2021/12/26 08:57:03;;;;;;;7.53;2.77;;;0.80;52.10;;;;;;5075553;28;20024;-64
2021/12/26 08:59:30;;;;;;;11.20;3.43;;;0.80;52.40;;;;;;5076863;28;20020;-64
2021/12/26 09:02:02;;;;;;;9.27;3.60;;;0.80;52.10;;;;;;5075943;28;20505;-64
2021/12/26 09:04:28;;;;;;;6.80;2.57;;;0.90;52.70;;;;;;5075797;28;20162;-64
2021/12/26 09:06:54;;;;;;;8.83;3.60;;;0.90;52.20;;;;;;5075038;28;20025;-64
2021/12/26 09:09:20;;;;;;;8.50;3.13;;;0.90;52.20;;;;;;5075538;28;20158;-64
2021/12/26 09:11:45;;;;;;;7.27;3.07;;;0.90;52.20;;;;;;5075569;28;20024;-64
2021/12/26 09:14:11;;;;;;;8.43;3.33;;;1.00;52.30;;;;;;5058734;28;20448;-65
2021/12/26 09:16:36;;;;;;;7.07;3.07;;;1.00;52.20;;;;;;5076496;28;20031;-65
2021/12/26 09:19:04;;;;;;;7.33;3.13;;;1.10;52.30;;;;;;5074939;28;20368;-64
2021/12/26 09:21:30;;;;;;;7.60;2.77;;;1.10;52.20;;;;;;5074855;28;20029;-65
2021/12/26 09:23:56;;;;;;;7.10;2.67;;;1.20;52.10;;;;;;5075026;28;20089;-65
2021/12/26 09:26:21;;;;;;;5.60;2.30;;;1.30;52.10;;;;;;5076596;28;20028;-64
2021/12/26 09:28:48;;;;;;;4.97;2.10;;;1.30;52.10;;;;;;5073469;28;20033;-65
2021/12/26 09:31:14;;;;;;;6.10;2.40;;;1.30;52.00;;;;;;5067287;28;20047;-65
2021/12/26 09:33:40;;;;;;;6.60;2.63;;;1.40;52.00;;;;;;5075270;28;20028;-65
2021/12/26 09:36:06;;;;;;;5.80;2.30;;;1.40;52.00;;;;;;5076362;28;20032;-64
2021/12/26 09:38:31;;;;;;;6.97;2.73;;;1.40;52.00;;;;;;5075631;28;20028;-65
2021/12/26 09:40:57;;;;;;;6.93;3.03;;;1.50;52.00;;;;;;5075024;28;20126;-65
2021/12/26 09:43:22;;;;;;;7.87;2.80;;;1.50;52.00;;;;;;5074662;28;20351;-64
2021/12/26 09:45:48;;;;;;;6.53;2.70;;;1.50;52.00;;;;;;5074669;28;20032;-64
2021/12/26 09:48:14;;;;;;;7.70;3.30;;;1.50;52.00;;;;;;5075824;28;20330;-65
2021/12/26 09:50:40;;;;;;;6.67;3.00;;;1.60;52.10;;;;;;5074716;28;20026;-64
2021/12/26 09:53:05;;;;;;;6.27;2.40;;;1.60;52.10;;;;;;5074626;28;20032;-64
2021/12/26 09:55:31;;;;;;;6.27;2.97;;;1.60;52.20;;;;;;5075396;28;20109;-64
2021/12/26 09:57:57;;;;;;;15.93;2.67;;;1.60;52.10;;;;;;5075887;28;20035;-64
2021/12/26 10:00:33;;;;;;;6.57;2.80;;;1.60;52.10;;;;;;5074853;28;20033;-63
2021/12/26 10:03:08;;;;;;;7.00;2.60;;;1.70;52.20;;;;;;5074436;28;20468;-65
2021/12/26 10:06:00;;;;;;;7.20;3.17;;;1.80;52.10;;;;;;5073718;28;20031;-64
2021/12/26 10:08:26;;;;;;;;;;;1.90;52.00;;;;;;5074972;28;20024;-65
2021/12/26 10:11:04;;;;;;;7.53;3.20;;;1.90;51.90;;;;;;5057943;28;19912;-64
2021/12/26 10:13:45;;;;;;;7.93;3.30;;;1.90;51.90;;;;;;5074907;28;20127;-64
2021/12/26 10:16:12;;;;;;;4.40;2.15;;;2.00;51.90;;;;;;5075042;28;20056;-64
2021/12/26 10:18:41;;;;;;;6.70;3.10;;;2.00;52.00;;;;;;5075670;28;20391;-64
2021/12/26 10:21:31;;;;;;;6.03;2.70;;;2.00;52.10;;;;;;5075511;28;20170;-65
2021/12/26 10:24:03;;;;;;;9.40;2.70;;;2.10;52.10;;;;;;5074822;28;20342;-65
2021/12/26 10:26:32;;;;;;;11.00;3.42;;;2.10;52.10;;;;;;5073778;28;20420;-66
2021/12/26 10:29:19;;;;;;;7.83;3.13;;;2.10;52.10;;;;;;5073135;28;20028;-65
2021/12/26 10:31:51;;;;;;;7.50;3.43;;;2.20;52.20;;;;;;5073514;28;20532;-64
2021/12/26 10:34:23;;;;;;;6.50;2.80;;;2.30;52.10;;;;;;5074991;28;20056;-64
2021/12/26 10:36:51;;;;;;;6.20;2.87;;;2.50;52.00;;;;;;5054460;28;20067;-65
2021/12/26 10:39:20;;;;;;;6.97;2.93;;;2.70;51.70;;;;;;5069891;28;20124;-66
2021/12/26 10:41:51;;;;;;;7.63;3.00;;;3.00;51.50;;;;;;5073456;28;20357;-65
2021/12/26 10:44:26;;;;;;;7.03;3.00;;;3.20;51.30;;;;;;5073988;28;20017;-65
2021/12/26 10:46:55;;;;;;;6.07;2.83;;;3.40;51.00;;;;;;5074243;28;20472;-65
2021/12/26 10:49:28;;;;;;;7.30;3.43;;;3.60;50.80;;;;;;5063133;28;20036;-65
2021/12/26 10:51:54;;;;;;;7.50;3.00;;;3.70;50.60;;;;;;5074091;28;20040;-65
2021/12/26 10:54:31;;;;;;;6.33;2.83;;;3.80;50.60;;;;;;5057234;28;20025;-64
2021/12/26 10:57:05;;;;;;;7.50;3.07;;;3.80;50.50;;;;;;5073254;28;20020;-65
2021/12/26 10:59:31;;;;;;;6.23;3.00;;;3.90;50.50;;;;;;5074368;28;20111;-64
2021/12/26 11:01:56;;;;;;;6.97;3.17;;;3.90;50.50;;;;;;5073280;28;20115;-64
2021/12/26 11:04:24;;;;;;;7.77;3.50;;;4.00;50.50;;;;;;5074869;28;20115;-65
2021/12/26 11:07:05;;;;;;;8.67;3.10;;;4.10;50.40;;;;;;5055473;28;20109;-67
2021/12/26 11:09:31;;;;;;;7.03;3.40;;;4.10;50.30;;;;;;5070433;28;20028;-64
2021/12/26 11:12:07;;;;;;;9.33;4.00;;;4.10;50.30;;;;;;5074194;28;20020;-64
2021/12/26 11:14:53;;;;;;;8.33;3.60;;;4.10;50.40;;;;;;5072409;28;20035;-64
2021/12/26 11:17:34;;;;;;;7.23;3.47;;;4.10;50.50;;;;;;5039291;28;20029;-64
2021/12/26 11:20:00;;;;;;;7.90;3.27;;;4.10;50.60;;;;;;5072483;28;20025;-64
2021/12/26 11:22:26;;;;;;;6.57;3.30;;;4.10;50.70;;;;;;5072844;28;20291;-64
2021/12/26 11:24:57;;;;;;;8.13;3.50;;;4.10;50.80;;;;;;5071510;28;20406;-64
2021/12/26 11:27:25;;;;;;;7.20;3.42;;;4.00;51.00;;;;;;5072672;28;20021;-65
2021/12/26 11:29:52;;;;;;;8.80;3.60;;;3.90;51.20;;;;;;5055918;28;20029;-64
2021/12/26 11:32:20;;;;;;;8.17;3.50;;;3.80;51.40;;;;;;5073842;28;20033;-64
2021/12/26 11:34:47;;;;;;;8.83;3.70;;;3.70;51.50;;;;;;5073887;28;20016;-64
2021/12/26 11:37:14;;;;;;;8.63;3.87;;;3.60;51.70;;;;;;5073210;28;20036;-64
2021/12/26 11:40:04;;;;;;;9.10;3.50;;;3.60;52.00;;;;;;5072864;28;20046;-64
2021/12/26 11:43:30;;;;;;;7.23;3.27;;;3.50;52.20;;;;;;5073661;28;20043;-64
2021/12/26 11:46:53;;;;;;;9.40;4.07;;;3.40;52.30;;;;;;5071310;28;20097;-64
2021/12/26 11:50:00;;;;;;;7.50;3.57;;;3.30;52.50;;;;;;5072313;28;20038;-64
2021/12/26 11:53:06;;;;;;;7.50;3.53;;;3.30;52.70;;;;;;5073830;28;20082;-64
2021/12/26 11:56:17;;;;;;;7.80;3.60;;;3.20;52.90;;;;;;5072377;28;20032;-64
2021/12/26 11:58:57;;;;;;;8.13;3.70;;;3.20;53.10;;;;;;5064566;28;20495;-64
2021/12/26 12:01:25;;;;;;;8.40;4.07;;;3.20;53.30;;;;;;5067894;28;20028;-64
2021/12/26 12:04:17;;;;;;;9.27;4.20;;;3.20;53.50;;;;;;5073257;28;20039;-64
2021/12/26 12:06:43;;;;;;;;;;;3.20;53.60;;;;;;5073238;28;20028;-64
2021/12/26 12:09:27;;;;;;;8.97;3.70;;;3.20;53.60;;;;;;5071163;28;20244;-64
2021/12/26 12:12:00;;;;;;;14.47;3.83;;;3.10;53.80;;;;;;5073848;28;20079;-64
2021/12/26 12:14:56;;;;;;;8.57;4.23;;;3.10;53.90;;;;;;5073520;28;20035;-64
2021/12/26 12:17:29;;;;;;;8.43;3.70;;;3.10;54.10;;;;;;5069141;28;20051;-64
2021/12/26 12:20:16;;;;;;;8.00;4.07;;;3.10;54.20;;;;;;5053054;28;20119;-64
2021/12/26 12:23:04;;;;;;;9.60;4.60;;;3.10;54.30;;;;;;5067012;28;20033;-64
2021/12/26 12:25:35;;;;;;;9.23;4.33;;;3.10;54.50;;;;;;5069083;28;20097;-64
2021/12/26 12:28:04;;;;;;;;;;;3.10;54.60;;;;;;5069223;28;20060;-64
2021/12/26 12:30:30;;;;;;;9.37;4.70;;;3.10;54.70;;;;;;5073774;28;19993;-64
2021/12/26 12:33:17;;;;;;;8.23;4.30;;;3.10;54.90;;;;;;5063402;28;20076;-64
2021/12/26 12:36:01;;;;;;;8.90;4.40;;;3.00;55.00;;;;;;5069870;28;20028;-64
2021/12/26 12:38:39;;;;;;;8.83;4.20;;;3.10;55.20;;;;;;5076570;28;20056;-63
2021/12/26 12:41:10;;;;;;;8.17;4.07;;;3.10;55.30;;;;;;5076644;28;20028;-64
2021/12/26 12:43:47;;;;;;;10.33;4.83;;;3.10;55.40;;;;;;5075968;28;20094;-64
2021/12/26 12:46:13;;;;;;;8.87;3.93;;;3.10;55.60;;;;;;5077097;28;20032;-64
2021/12/26 12:48:41;;;;;;;9.03;4.20;;;3.10;55.60;;;;;;5074252;28;20354;-64
2021/12/26 12:51:15;;;;;;;8.07;4.00;;;3.20;55.70;;;;;;5054494;28;20166;-64
2021/12/26 12:53:41;;;;;;;9.13;4.60;;;3.20;55.80;;;;;;5077188;28;20361;-64
2021/12/26 12:56:26;;;;;;;8.70;4.30;;;3.20;55.90;;;;;;5075752;28;20036;-63
2021/12/26 12:58:52;;;;;;;8.63;4.03;;;3.30;56.00;;;;;;5070618;28;20040;-64
2021/12/26 13:01:38;;;;;;;10.43;4.97;;;3.30;56.00;;;;;;5075116;28;20040;-64
2021/12/26 13:04:04;;;;;;;8.80;4.00;;;3.30;56.10;;;;;;5070258;28;20079;-64
2021/12/26 13:06:30;;;;;;;8.93;4.60;;;3.30;56.10;;;;;;5075552;28;20028;-64
2021/12/26 13:08:56;;;;;;;9.20;5.10;;;3.40;56.20;;;;;;5076404;28;20029;-63
2021/12/26 13:11:22;;;;;;;9.67;4.70;;;3.40;56.30;;;;;;5076161;28;20028;-64
2021/12/26 13:13:50;;;;;;;7.97;4.30;;;3.40;56.30;;;;;;5075447;28;20475;-65
2021/12/26 13:16:16;;;;;;;8.53;4.40;;;3.40;56.40;;;;;;5076563;28;20036;-64
2021/12/26 13:18:42;;;;;;;10.23;5.20;;;3.40;56.40;;;;;;5076528;28;20032;-64
2021/12/26 13:21:10;;;;;;;11.60;5.63;;;3.40;56.50;;;;;;5051981;28;20056;-64